Time;durP1;ratioP1;P1;durP2;ratioP2;P2;SDS_P1;SDS_P2;PMS_P1;PMS_P2;Temp;Humidity;BMP_temperature;BMP_pressure;BME280_temperature;BME280_humidity;BME280_pressure;Samples;Min_cycle;Max_cycle;Signal;HPM_P1;HPM_P2
2024/04/15 00:01:29;;;;;;;21.53;8.23;;;11.00;99.90;;;;;;801151;177;26508;-76
2024/04/15 00:03:56;;;;;;;15.33;6.97;;;10.90;99.90;;;;;;801383;177;27057;-77
2024/04/15 00:06:23;;;;;;;13.57;6.57;;;11.00;99.90;;;;;;801486;175;26816;-76
2024/04/15 00:08:49;;;;;;;14.50;6.00;;;11.00;99.90;;;;;;803602;176;26448;-79
2024/04/15 00:11:17;;;;;;;17.40;6.13;;;10.90;99.90;;;;;;803796;176;26599;-78
2024/04/15 00:13:42;;;;;;;15.07;6.40;;;10.80;99.90;;;;;;798864;176;26485;-77
2024/04/15 00:16:10;;;;;;;15.90;6.30;;;10.80;99.90;;;;;;802382;177;27040;-76
2024/04/15 00:18:36;;;;;;;13.40;6.90;;;10.80;99.90;;;;;;803772;177;26441;-78
2024/04/15 00:21:04;;;;;;;18.30;6.57;;;10.80;99.90;;;;;;801722;178;26515;-76
2024/04/15 00:23:29;;;;;;;14.67;7.20;;;10.70;99.90;;;;;;802111;177;27088;-77
2024/04/15 00:25:56;;;;;;;17.77;6.70;;;10.70;99.90;;;;;;803334;178;26532;-76
2024/04/15 00:28:23;;;;;;;30.43;15.07;;;10.70;99.90;;;;;;805962;176;27058;-76
2024/04/15 00:30:49;;;;;;;19.30;8.43;;;10.80;99.90;;;;;;805114;178;26528;-76
2024/04/15 00:33:16;;;;;;;19.13;7.50;;;10.80;99.90;;;;;;800801;177;26438;-77
2024/04/15 00:35:45;;;;;;;18.57;8.27;;;10.70;99.90;;;;;;804161;176;27051;-77
2024/04/15 00:38:12;;;;;;;17.87;8.20;;;10.60;99.90;;;;;;804710;177;26428;-77
2024/04/15 00:40:39;;;;;;;14.03;8.63;;;10.50;99.90;;;;;;804868;177;26519;-78
2024/04/15 00:43:05;;;;;;;16.57;7.43;;;10.50;99.90;;;;;;801083;176;26441;-77
2024/04/15 00:45:32;;;;;;;18.47;8.27;;;10.60;99.90;;;;;;804818;178;27066;-78
2024/04/15 00:47:58;;;;;;;19.80;7.90;;;10.60;99.90;;;;;;803597;177;26616;-78
2024/04/15 00:50:25;;;;;;;22.37;10.10;;;10.60;99.90;;;;;;803667;177;26518;-77
2024/04/15 00:52:52;;;;;;;19.33;7.63;;;10.60;99.90;;;;;;800895;178;27019;-77
2024/04/15 00:55:19;;;;;;;15.50;7.53;;;10.60;99.90;;;;;;803346;178;26432;-78
2024/04/15 00:57:45;;;;;;;23.03;8.40;;;10.50;99.90;;;;;;803459;178;26463;-76
2024/04/15 01:00:13;;;;;;;14.97;6.37;;;10.60;99.90;;;;;;801113;178;26517;-78
2024/04/15 01:02:39;;;;;;;17.43;8.53;;;10.60;99.90;;;;;;804779;178;26452;-76
2024/04/15 01:05:06;;;;;;;15.03;8.07;;;10.60;99.90;;;;;;802305;177;26511;-76
2024/04/15 01:07:35;;;;;;;13.00;6.87;;;10.60;99.90;;;;;;802681;177;26513;-78
2024/04/15 01:09:59;;;;;;;14.43;7.40;;;10.60;99.90;;;;;;801461;177;26540;-78
2024/04/15 01:12:26;;;;;;;23.60;9.60;;;10.60;99.90;;;;;;800673;178;26514;-77
2024/04/15 01:14:53;;;;;;;18.07;8.23;;;10.60;99.90;;;;;;800552;177;26669;-76
2024/04/15 01:17:19;;;;;;;13.60;7.73;;;10.60;99.90;;;;;;801940;177;26602;-76
2024/04/15 01:19:46;;;;;;;15.07;8.80;;;10.60;99.90;;;;;;803485;177;27086;-76
2024/04/15 01:22:12;;;;;;;17.73;8.83;;;10.70;99.90;;;;;;789190;177;26463;-76
2024/04/15 01:24:39;;;;;;;17.90;9.17;;;10.60;99.90;;;;;;803864;177;27021;-77
2024/04/15 01:27:06;;;;;;;13.83;8.17;;;10.60;99.90;;;;;;802467;176;26564;-77
2024/04/15 01:29:32;;;;;;;18.53;8.63;;;10.60;99.90;;;;;;802549;177;26592;-77
2024/04/15 01:31:59;;;;;;;15.27;8.17;;;10.60;99.90;;;;;;801668;178;26483;-77
2024/04/15 01:34:25;;;;;;;15.00;10.23;;;10.60;99.90;;;;;;803577;177;26428;-77
2024/04/15 01:36:52;;;;;;;20.10;9.67;;;10.60;99.90;;;;;;804178;177;27007;-76
2024/04/15 01:39:19;;;;;;;18.07;8.63;;;10.60;99.90;;;;;;803088;175;26454;-77
2024/04/15 01:41:45;;;;;;;22.30;9.43;;;10.60;99.90;;;;;;806196;177;27076;-77
2024/04/15 01:44:12;;;;;;;15.70;8.50;;;10.60;99.90;;;;;;803921;177;26445;-77
2024/04/15 01:46:38;;;;;;;16.93;10.13;;;10.60;99.90;;;;;;803813;174;26451;-76
2024/04/15 01:49:05;;;;;;;19.20;10.57;;;10.50;99.90;;;;;;806421;176;26492;-77
2024/04/15 01:51:32;;;;;;;18.17;10.03;;;10.50;99.90;;;;;;802843;178;26512;-78
2024/04/15 01:53:58;;;;;;;20.77;11.13;;;10.40;99.90;;;;;;803733;175;27034;-79
2024/04/15 01:56:25;;;;;;;20.77;11.30;;;10.40;99.90;;;;;;804592;175;26487;-76
2024/04/15 01:58:51;;;;;;;20.10;11.50;;;10.30;99.90;;;;;;802199;177;26469;-77
2024/04/15 02:01:18;;;;;;;19.77;11.30;;;10.30;99.90;;;;;;802655;177;26476;-76
2024/04/15 02:03:45;;;;;;;21.67;12.00;;;10.20;99.90;;;;;;805898;177;26434;-77
2024/04/15 02:06:11;;;;;;;20.50;12.60;;;10.20;99.90;;;;;;803921;177;26985;-78
2024/04/15 02:08:38;;;;;;;23.27;12.87;;;10.20;99.90;;;;;;802993;177;26577;-78
2024/04/15 02:11:04;;;;;;;48.77;23.03;;;10.30;99.90;;;;;;802221;178;27054;-76
2024/04/15 02:13:31;;;;;;;32.03;14.40;;;10.20;99.90;;;;;;803548;176;26432;-76
2024/04/15 02:15:58;;;;;;;27.20;15.03;;;10.20;99.90;;;;;;801306;177;26461;-78
2024/04/15 02:18:24;;;;;;;27.63;14.57;;;10.20;99.90;;;;;;800961;177;26456;-75
2024/04/15 02:20:51;;;;;;;28.70;16.83;;;10.20;99.90;;;;;;803492;178;26522;-78
2024/04/15 02:23:17;;;;;;;24.37;15.30;;;10.20;99.90;;;;;;804878;177;26455;-78
2024/04/15 02:25:44;;;;;;;22.60;13.93;;;10.20;99.90;;;;;;804529;177;26446;-77
2024/04/15 02:28:11;;;;;;;22.73;13.43;;;10.10;99.90;;;;;;803520;177;26486;-78
2024/04/15 02:30:37;;;;;;;25.57;13.97;;;10.20;99.90;;;;;;804263;177;27022;-76
2024/04/15 02:33:04;;;;;;;23.33;14.17;;;10.20;99.90;;;;;;802103;177;26664;-78
2024/04/15 02:35:30;;;;;;;26.00;14.50;;;10.30;99.90;;;;;;803312;177;26542;-77
2024/04/15 02:37:57;;;;;;;26.00;16.00;;;10.30;99.90;;;;;;804327;176;26646;-78
2024/04/15 02:40:24;;;;;;;27.00;16.10;;;10.40;99.90;;;;;;802570;177;27075;-77
2024/04/15 02:42:50;;;;;;;30.30;16.17;;;10.40;99.90;;;;;;802457;177;26514;-77
2024/04/15 02:45:17;;;;;;;27.93;17.50;;;10.30;99.90;;;;;;802053;178;27058;-77
2024/04/15 02:47:43;;;;;;;31.43;16.93;;;10.30;99.90;;;;;;800450;177;26584;-78
2024/04/15 02:50:10;;;;;;;25.50;15.93;;;10.30;99.90;;;;;;800064;177;26490;-75
2024/04/15 02:52:37;;;;;;;27.13;15.67;;;10.30;99.90;;;;;;805462;177;27013;-77
2024/04/15 02:55:03;;;;;;;27.10;14.67;;;10.20;99.90;;;;;;805167;177;26451;-76
2024/04/15 02:57:30;;;;;;;25.23;15.00;;;10.20;99.90;;;;;;803099;177;26435;-76
2024/04/15 02:59:57;;;;;;;26.47;15.57;;;10.20;99.90;;;;;;803009;178;26471;-77
2024/04/15 03:02:23;;;;;;;22.60;14.17;;;10.20;99.90;;;;;;801391;177;27235;-78
2024/04/15 03:04:50;;;;;;;19.57;12.00;;;10.20;99.90;;;;;;804133;177;26570;-78
2024/04/15 03:07:17;;;;;;;24.23;12.40;;;10.20;99.90;;;;;;802233;178;27013;-77
2024/04/15 03:09:44;;;;;;;22.77;13.73;;;10.10;99.90;;;;;;802917;178;26449;-76
2024/04/15 03:12:12;;;;;;;19.90;13.10;;;10.10;99.90;;;;;;802735;178;26445;-77
2024/04/15 03:14:36;;;;;;;21.13;13.53;;;10.00;99.90;;;;;;801472;178;27026;-76
2024/04/15 03:17:03;;;;;;;19.73;12.37;;;9.90;99.90;;;;;;801204;178;26432;-77
2024/04/15 03:19:30;;;;;;;19.83;13.20;;;9.90;99.90;;;;;;804895;176;26431;-77
2024/04/15 03:21:56;;;;;;;19.30;12.40;;;9.80;99.90;;;;;;804498;177;26575;-77
2024/04/15 03:24:23;;;;;;;21.50;13.23;;;9.80;99.90;;;;;;806317;178;26448;-77
2024/04/15 03:26:49;;;;;;;25.33;14.27;;;9.70;99.90;;;;;;801964;178;26438;-77
2024/04/15 03:29:16;;;;;;;19.30;13.50;;;9.60;99.90;;;;;;801813;178;26442;-77
2024/04/15 03:31:43;;;;;;;23.87;12.90;;;9.60;99.90;;;;;;801073;177;27008;-77
2024/04/15 03:34:09;;;;;;;20.67;12.33;;;9.60;99.90;;;;;;801202;178;26469;-77
2024/04/15 03:36:36;;;;;;;19.33;12.30;;;9.60;99.90;;;;;;803663;175;26465;-75
2024/04/15 03:39:02;;;;;;;19.03;12.37;;;9.60;99.90;;;;;;799098;177;26494;-76
2024/04/15 03:41:29;;;;;;;19.90;13.10;;;9.50;99.90;;;;;;804761;177;26539;-76
2024/04/15 03:43:56;;;;;;;24.23;13.17;;;9.50;99.90;;;;;;802514;178;26997;-77
2024/04/15 03:46:22;;;;;;;19.27;12.17;;;9.50;99.90;;;;;;801326;178;26504;-76
2024/04/15 03:48:49;;;;;;;17.33;11.20;;;9.50;99.90;;;;;;804206;178;26461;-76
2024/04/15 03:51:16;;;;;;;16.37;9.67;;;9.50;99.90;;;;;;804701;176;26524;-77
2024/04/15 03:53:42;;;;;;;23.00;11.57;;;9.40;99.90;;;;;;799353;177;26434;-76
2024/04/15 03:56:09;;;;;;;20.77;11.87;;;9.50;99.90;;;;;;803175;178;26440;-76
2024/04/15 03:58:35;;;;;;;17.00;9.87;;;9.50;99.90;;;;;;802713;178;26434;-76
2024/04/15 04:01:02;;;;;;;16.23;10.63;;;9.40;99.90;;;;;;801952;175;27040;-77
2024/04/15 04:03:28;;;;;;;18.50;10.90;;;9.30;99.90;;;;;;801561;176;26433;-77
2024/04/15 04:05:55;;;;;;;18.60;10.50;;;9.30;99.90;;;;;;808410;176;26442;-78
2024/04/15 04:08:22;;;;;;;14.60;9.57;;;9.20;99.90;;;;;;808321;177;26446;-77
2024/04/15 04:10:48;;;;;;;15.60;9.43;;;9.20;99.90;;;;;;806291;175;26470;-78
2024/04/15 04:13:15;;;;;;;16.77;10.13;;;9.30;99.90;;;;;;803977;178;26432;-78
2024/04/15 04:15:44;;;;;;;18.70;9.60;;;9.20;99.90;;;;;;805843;177;26456;-78
2024/04/15 04:18:08;;;;;;;15.07;10.03;;;9.20;99.90;;;;;;807737;177;26940;-76
2024/04/15 04:20:34;;;;;;;20.20;10.13;;;9.20;99.90;;;;;;803422;177;26486;-74
2024/04/15 04:23:01;;;;;;;18.77;9.27;;;9.20;99.90;;;;;;798636;177;26480;-77
2024/04/15 04:25:28;;;;;;;16.40;10.57;;;9.20;99.90;;;;;;804866;177;26433;-77
2024/04/15 04:27:54;;;;;;;15.43;9.27;;;9.10;99.90;;;;;;805554;177;26447;-77
2024/04/15 04:30:21;;;;;;;22.73;11.70;;;9.10;99.90;;;;;;803574;177;26456;-76
2024/04/15 04:32:47;;;;;;;21.37;11.80;;;9.10;99.90;;;;;;804224;177;26482;-76
2024/04/15 04:35:14;;;;;;;16.83;9.73;;;9.00;99.90;;;;;;801262;177;26438;-76
2024/04/15 04:37:41;;;;;;;17.13;10.53;;;9.00;99.90;;;;;;799703;178;26444;-76
2024/04/15 04:40:08;;;;;;;18.70;10.17;;;9.00;99.90;;;;;;803647;178;26460;-77
2024/04/15 04:42:35;;;;;;;20.80;10.60;;;9.00;99.90;;;;;;803757;175;26445;-78
2024/04/15 04:45:01;;;;;;;16.03;9.57;;;9.10;99.90;;;;;;798881;178;27000;-77
2024/04/15 04:47:28;;;;;;;17.73;9.03;;;9.00;99.90;;;;;;802354;175;26451;-77
2024/04/15 04:49:56;;;;;;;19.03;9.83;;;9.10;99.90;;;;;;797467;178;27082;-77
2024/04/15 04:52:21;;;;;;;15.77;8.37;;;9.00;99.90;;;;;;799355;178;26603;-77
2024/04/15 04:54:48;;;;;;;16.17;8.63;;;9.00;99.90;;;;;;800424;177;26446;-77
2024/04/15 04:57:14;;;;;;;17.00;8.47;;;9.00;99.90;;;;;;799760;176;27005;-77
2024/04/15 04:59:41;;;;;;;13.97;8.10;;;9.00;99.90;;;;;;801801;178;26464;-77
2024/04/15 05:02:08;;;;;;;15.70;9.07;;;9.00;99.90;;;;;;804947;177;26448;-77
2024/04/15 05:04:34;;;;;;;18.03;8.47;;;9.00;99.90;;;;;;801337;178;26987;-77
2024/04/15 05:07:01;;;;;;;16.70;8.20;;;8.90;99.90;;;;;;798022;178;26494;-77
2024/04/15 05:09:28;;;;;;;18.40;9.50;;;8.90;99.90;;;;;;802481;177;27079;-76
2024/04/15 05:11:55;;;;;;;17.57;8.63;;;8.90;99.90;;;;;;803875;176;26974;-77
2024/04/15 05:14:21;;;;;;;22.03;9.47;;;8.90;99.90;;;;;;804515;176;26432;-77
2024/04/15 05:16:48;;;;;;;13.80;8.23;;;8.90;99.90;;;;;;805056;176;26492;-76
2024/04/15 05:19:15;;;;;;;21.67;9.87;;;8.90;99.90;;;;;;803514;178;26475;-76
2024/04/15 05:21:41;;;;;;;17.70;9.07;;;8.90;99.90;;;;;;805809;177;26453;-76
2024/04/15 05:24:08;;;;;;;17.87;8.10;;;8.90;99.90;;;;;;804087;178;26432;-76
2024/04/15 05:26:34;;;;;;;18.23;8.57;;;8.90;99.90;;;;;;801086;177;26516;-76
2024/04/15 05:29:01;;;;;;;13.63;7.23;;;9.00;99.90;;;;;;804538;175;26998;-77
2024/04/15 05:31:27;;;;;;;15.30;7.80;;;9.00;99.90;;;;;;804106;178;26654;-77
2024/04/15 05:33:54;;;;;;;17.07;6.93;;;9.10;99.90;;;;;;800569;178;27045;-77
2024/04/15 05:36:21;;;;;;;20.67;9.23;;;9.10;99.90;;;;;;801960;177;26432;-77
2024/04/15 05:38:47;;;;;;;17.50;7.83;;;9.20;99.90;;;;;;801587;175;26985;-77
2024/04/15 05:41:14;;;;;;;16.27;7.20;;;9.20;99.90;;;;;;804678;176;26463;-77
2024/04/15 05:43:40;;;;;;;15.00;7.13;;;9.20;99.90;;;;;;803631;178;26432;-77
2024/04/15 05:46:07;;;;;;;15.23;5.73;;;9.20;99.90;;;;;;801551;177;26587;-77
2024/04/15 05:48:34;;;;;;;16.67;6.00;;;9.20;99.90;;;;;;803156;177;26432;-76
2024/04/15 05:51:00;;;;;;;12.57;6.33;;;9.20;99.90;;;;;;806520;177;27022;-76
2024/04/15 05:53:27;;;;;;;18.70;6.50;;;9.40;99.90;;;;;;803276;177;26493;-77
2024/04/15 05:55:53;;;;;;;11.70;5.93;;;9.40;99.90;;;;;;803588;176;26979;-76
2024/04/15 05:58:20;;;;;;;14.97;6.07;;;9.40;99.90;;;;;;802842;176;26454;-76
2024/04/15 06:00:47;;;;;;;14.80;6.30;;;9.40;99.90;;;;;;802328;177;28054;-77
2024/04/15 06:03:13;;;;;;;12.57;5.37;;;9.50;99.90;;;;;;801013;178;26467;-76
2024/04/15 06:05:40;;;;;;;10.57;5.40;;;9.60;99.90;;;;;;801791;177;26432;-77
2024/04/15 06:08:06;;;;;;;14.33;6.33;;;9.60;99.90;;;;;;798096;178;26624;-76
2024/04/15 06:10:33;;;;;;;9.70;5.50;;;9.70;99.90;;;;;;799609;178;26663;-77
2024/04/15 06:13:00;;;;;;;12.73;5.90;;;9.80;99.90;;;;;;799038;178;26507;-76
2024/04/15 06:15:26;;;;;;;18.40;6.03;;;9.90;99.90;;;;;;803303;178;26456;-77
2024/04/15 06:17:53;;;;;;;14.17;5.23;;;9.90;99.90;;;;;;801775;175;26462;-77
2024/04/15 06:20:19;;;;;;;14.67;5.87;;;9.90;99.90;;;;;;800234;178;26476;-77
2024/04/15 06:22:46;;;;;;;15.63;5.00;;;10.00;99.90;;;;;;802468;175;27076;-77
2024/04/15 06:25:13;;;;;;;11.63;5.03;;;10.00;99.90;;;;;;803785;175;27041;-77
2024/04/15 06:27:39;;;;;;;16.80;5.00;;;10.00;99.90;;;;;;801432;177;26428;-76
2024/04/15 06:30:06;;;;;;;13.87;4.53;;;9.90;99.90;;;;;;803245;176;26473;-77
2024/04/15 06:32:33;;;;;;;11.77;3.83;;;9.90;99.90;;;;;;807781;176;26505;-77
2024/04/15 06:35:00;;;;;;;17.23;5.43;;;9.90;99.90;;;;;;806061;178;27011;-76
2024/04/15 06:37:26;;;;;;;13.43;5.13;;;10.00;99.90;;;;;;805253;175;26489;-76
2024/04/15 06:39:53;;;;;;;13.67;4.63;;;10.00;99.90;;;;;;802536;178;26511;-77
2024/04/15 06:42:28;;;;;;;18.30;5.40;;;9.90;99.90;;;;;;805442;177;26536;-78
2024/04/15 06:44:55;;;;;;;15.60;5.27;;;10.00;99.90;;;;;;801102;177;26520;-77
2024/04/15 06:47:22;;;;;;;17.53;4.97;;;10.10;99.90;;;;;;800692;175;26435;-77
2024/04/15 06:49:48;;;;;;;10.17;3.40;;;10.10;99.90;;;;;;804515;175;26485;-77
2024/04/15 06:52:15;;;;;;;15.03;4.40;;;10.00;99.90;;;;;;804356;177;27040;-77
2024/04/15 06:54:42;;;;;;;13.63;3.87;;;9.90;99.90;;;;;;800741;178;26447;-77
2024/04/15 06:57:08;;;;;;;12.63;3.73;;;10.00;99.90;;;;;;801038;175;26456;-77
2024/04/15 06:59:34;;;;;;;13.77;5.20;;;10.00;99.90;;;;;;803294;177;26436;-76
2024/04/15 07:02:01;;;;;;;14.73;4.10;;;10.20;99.90;;;;;;803670;178;26482;-77
2024/04/15 07:04:28;;;;;;;18.50;5.23;;;10.30;99.90;;;;;;802373;178;26981;-77
2024/04/15 07:06:54;;;;;;;18.70;4.77;;;10.30;99.90;;;;;;802466;178;26447;-77
2024/04/15 07:09:21;;;;;;;11.70;4.30;;;10.30;99.90;;;;;;802131;177;26968;-78
2024/04/15 07:11:47;;;;;;;9.33;4.37;;;10.20;99.90;;;;;;801992;177;26455;-76
2024/04/15 07:14:14;;;;;;;17.47;4.60;;;10.30;99.90;;;;;;801568;178;26465;-76
2024/04/15 07:16:41;;;;;;;21.07;4.97;;;10.30;99.90;;;;;;802813;175;26420;-76
2024/04/15 07:19:07;;;;;;;13.87;4.20;;;10.30;99.90;;;;;;805098;177;26426;-76
2024/04/15 07:21:34;;;;;;;17.50;4.67;;;10.20;99.90;;;;;;802576;177;27012;-78
2024/04/15 07:24:00;;;;;;;16.30;4.90;;;10.20;99.90;;;;;;802012;178;26434;-77
2024/04/15 07:26:27;;;;;;;12.87;4.57;;;10.50;99.90;;;;;;802509;177;27008;-77
2024/04/15 07:28:54;;;;;;;11.30;4.87;;;10.60;99.90;;;;;;802922;176;26610;-78
2024/04/15 07:31:20;;;;;;;17.17;4.97;;;10.50;99.90;;;;;;803639;177;26483;-77
2024/04/15 07:33:47;;;;;;;12.07;4.67;;;10.50;99.90;;;;;;806188;176;26449;-78
2024/04/15 07:36:13;;;;;;;6.47;3.47;;;10.40;99.90;;;;;;802454;178;26462;-77
2024/04/15 07:38:40;;;;;;;11.47;3.83;;;10.10;99.90;;;;;;809232;176;26423;-77
2024/04/15 07:41:07;;;;;;;10.80;3.30;;;10.20;99.90;;;;;;805922;177;26447;-77
2024/04/15 07:43:33;;;;;;;18.17;4.13;;;10.30;99.90;;;;;;804148;177;26485;-77
2024/04/15 07:46:00;;;;;;;9.13;3.50;;;10.40;99.90;;;;;;803771;175;26516;-76
2024/04/15 07:48:26;;;;;;;12.87;4.93;;;10.40;99.90;;;;;;804543;175;26499;-78
2024/04/15 07:50:53;;;;;;;11.07;3.93;;;10.70;99.90;;;;;;806852;175;26456;-78
2024/04/15 07:53:20;;;;;;;15.17;5.43;;;11.00;99.90;;;;;;800832;178;26478;-75
2024/04/15 07:55:47;;;;;;;31.93;13.50;;;10.80;99.90;;;;;;800389;176;27037;-76
2024/04/15 07:58:13;;;;;;;12.73;4.03;;;10.80;99.90;;;;;;801139;175;26595;-77
2024/04/15 08:00:39;;;;;;;16.27;6.73;;;11.10;99.90;;;;;;803120;177;26497;-77
2024/04/15 08:03:06;;;;;;;12.63;4.17;;;10.90;99.90;;;;;;802879;177;26442;-77
2024/04/15 08:05:33;;;;;;;20.00;6.70;;;10.80;99.90;;;;;;803504;177;26465;-77
2024/04/15 08:07:59;;;;;;;13.93;4.20;;;11.10;99.90;;;;;;802546;176;26488;-77
2024/04/15 08:10:26;;;;;;;9.57;4.40;;;11.30;99.90;;;;;;803773;177;26468;-77
2024/04/15 08:12:52;;;;;;;10.27;5.30;;;11.50;99.90;;;;;;803473;178;26459;-76
2024/04/15 08:15:19;;;;;;;13.33;4.37;;;11.40;99.90;;;;;;803829;177;27002;-76
2024/04/15 08:17:46;;;;;;;12.00;4.03;;;11.40;99.90;;;;;;800000;178;26517;-75
2024/04/15 08:20:12;;;;;;;12.17;3.03;;;11.80;99.90;;;;;;799782;177;26664;-78
2024/04/15 08:22:40;;;;;;;14.10;3.33;;;12.20;99.90;;;;;;801163;178;26417;-76
2024/04/15 08:25:08;;;;;;;11.90;3.63;;;12.20;99.90;;;;;;800880;175;26441;-76
2024/04/15 08:27:32;;;;;;;10.93;3.37;;;12.50;99.90;;;;;;803496;178;26469;-77
2024/04/15 08:29:59;;;;;;;12.50;3.70;;;12.50;99.90;;;;;;803592;177;26507;-76
2024/04/15 08:32:25;;;;;;;10.93;3.67;;;12.70;99.90;;;;;;800340;178;26450;-75
2024/04/15 08:34:52;;;;;;;10.10;3.13;;;12.60;99.90;;;;;;802511;177;26461;-79
2024/04/15 08:37:18;;;;;;;12.27;4.13;;;12.20;99.90;;;;;;805165;177;26435;-76
2024/04/15 08:39:45;;;;;;;9.03;3.40;;;12.40;99.90;;;;;;803011;175;27069;-76
2024/04/15 08:42:15;;;;;;;9.07;3.83;;;12.60;99.90;;;;;;802052;177;26490;-76
2024/04/15 08:44:43;;;;;;;13.97;4.73;;;12.40;99.90;;;;;;802893;177;27003;-75
2024/04/15 08:47:12;;;;;;;9.17;3.30;;;12.60;99.90;;;;;;799610;177;26459;-76
2024/04/15 08:49:35;;;;;;;10.63;3.80;;;12.50;99.90;;;;;;800967;175;26440;-76
2024/04/15 08:52:02;;;;;;;11.97;3.90;;;12.70;99.90;;;;;;804084;177;26606;-76
2024/04/15 08:54:29;;;;;;;8.30;2.77;;;12.50;99.90;;;;;;803986;174;26493;-76
2024/04/15 08:56:55;;;;;;;17.33;4.63;;;12.30;99.90;;;;;;802888;177;26477;-76
2024/04/15 08:59:22;;;;;;;7.47;3.00;;;12.50;99.90;;;;;;803053;175;26457;-77
2024/04/15 09:01:48;;;;;;;10.97;2.53;;;12.70;99.90;;;;;;805870;178;26445;-77
2024/04/15 09:04:15;;;;;;;7.83;2.63;;;12.30;99.90;;;;;;805220;175;26444;-78
2024/04/15 09:06:42;;;;;;;6.93;2.83;;;12.30;99.90;;;;;;806189;177;26469;-77
2024/04/15 09:09:10;;;;;;;8.43;2.40;;;12.40;99.90;;;;;;803642;175;26432;-77
2024/04/15 09:11:35;;;;;;;11.63;2.97;;;12.40;99.90;;;;;;802543;176;26484;-77
2024/04/15 09:14:03;;;;;;;7.30;2.50;;;12.70;99.90;;;;;;803731;176;26998;-76
2024/04/15 09:16:28;;;;;;;7.93;3.27;;;12.90;99.90;;;;;;802471;176;26988;-76
2024/04/15 09:18:55;;;;;;;8.53;2.53;;;12.80;99.90;;;;;;803148;176;26463;-76
2024/04/15 09:21:21;;;;;;;9.00;2.47;;;12.80;99.90;;;;;;804877;175;27031;-77
2024/04/15 09:23:48;;;;;;;10.17;3.07;;;12.80;99.10;;;;;;805155;175;26431;-76
2024/04/15 09:26:15;;;;;;;5.00;2.30;;;12.70;99.70;;;;;;802489;177;26610;-77
2024/04/15 09:28:41;;;;;;;6.57;2.37;;;12.30;99.60;;;;;;801993;177;26442;-76
2024/04/15 09:31:08;;;;;;;12.93;2.90;;;12.40;99.70;;;;;;801577;177;26475;-77
2024/04/15 09:33:35;;;;;;;11.67;4.40;;;12.70;99.30;;;;;;801857;178;26479;-77
2024/04/15 09:36:02;;;;;;;20.20;9.63;;;12.70;98.70;;;;;;802333;177;28079;-77
2024/04/15 09:38:29;;;;;;;30.23;14.60;;;12.70;99.20;;;;;;802089;176;26442;-77
2024/04/15 09:40:55;;;;;;;14.00;4.63;;;12.70;98.40;;;;;;799917;178;27001;-77
2024/04/15 09:43:23;;;;;;;15.93;3.70;;;13.00;98.10;;;;;;801846;178;26665;-77
2024/04/15 09:45:48;;;;;;;10.47;2.80;;;13.10;97.40;;;;;;801513;177;28072;-77
2024/04/15 09:48:17;;;;;;;15.13;4.17;;;13.40;96.70;;;;;;802594;177;26502;-76
2024/04/15 09:50:44;;;;;;;8.20;2.63;;;13.60;97.60;;;;;;801934;178;26477;-77
2024/04/15 09:53:08;;;;;;;9.57;2.80;;;13.40;95.90;;;;;;802741;177;26511;-77
2024/04/15 09:55:38;;;;;;;9.20;2.80;;;13.50;95.30;;;;;;802153;177;26503;-76
2024/04/15 09:58:03;;;;;;;9.60;2.83;;;13.30;95.90;;;;;;802343;175;26439;-76
2024/04/15 10:00:30;;;;;;;12.23;3.27;;;13.60;94.60;;;;;;802448;176;26464;-75
2024/04/15 10:03:00;;;;;;;20.97;9.67;;;13.70;94.50;;;;;;805523;175;26614;-77
2024/04/15 10:05:24;;;;;;;26.90;12.17;;;13.60;94.30;;;;;;802881;177;26445;-77
2024/04/15 10:07:52;;;;;;;13.90;7.07;;;13.60;93.90;;;;;;801799;177;27011;-77
2024/04/15 10:10:19;;;;;;;23.50;10.77;;;13.60;94.00;;;;;;804904;177;26663;-77
2024/04/15 10:12:48;;;;;;;39.07;17.97;;;14.30;95.20;;;;;;801528;177;27022;-77
2024/04/15 10:15:14;;;;;;;25.87;10.07;;;14.20;92.80;;;;;;802197;177;26504;-76
2024/04/15 10:17:41;;;;;;;12.60;6.07;;;13.70;93.00;;;;;;802847;175;26652;-77
2024/04/15 10:20:11;;;;;;;12.43;4.20;;;13.60;94.10;;;;;;802931;175;26451;-77
2024/04/15 10:22:38;;;;;;;17.07;8.40;;;14.00;93.90;;;;;;804835;178;26450;-78
2024/04/15 10:25:05;;;;;;;79.20;34.83;;;13.80;91.80;;;;;;806058;177;27020;-76
2024/04/15 10:27:32;;;;;;;9.13;3.80;;;13.70;91.80;;;;;;803090;178;26442;-78
2024/04/15 10:29:58;;;;;;;26.67;12.63;;;13.40;91.70;;;;;;804145;177;26468;-78
2024/04/15 10:32:25;;;;;;;18.33;7.70;;;13.60;93.10;;;;;;798341;177;26453;-78
2024/04/15 10:34:53;;;;;;;17.80;7.47;;;13.40;92.70;;;;;;798269;178;27005;-75
2024/04/15 10:37:18;;;;;;;20.67;11.30;;;13.60;93.20;;;;;;800694;178;26468;-76
2024/04/15 10:39:46;;;;;;;70.77;25.13;;;13.70;93.90;;;;;;799093;175;26676;-76
2024/04/15 10:42:12;;;;;;;52.17;20.37;;;13.80;93.00;;;;;;800759;176;26466;-77
2024/04/15 10:44:39;;;;;;;63.13;26.67;;;13.80;93.70;;;;;;803377;175;26480;-78
2024/04/15 10:47:05;;;;;;;14.90;5.43;;;13.90;92.10;;;;;;802070;176;27003;-77
2024/04/15 10:49:32;;;;;;;46.60;21.60;;;14.50;90.30;;;;;;801872;177;26457;-76
2024/04/15 10:51:59;;;;;;;10.83;5.50;;;15.00;87.50;;;;;;800705;177;27005;-76
2024/04/15 10:54:25;;;;;;;10.43;4.30;;;15.20;81.10;;;;;;798235;175;26488;-77
2024/04/15 10:56:52;;;;;;;8.83;2.77;;;15.20;83.50;;;;;;799684;175;28041;-77
2024/04/15 10:59:18;;;;;;;19.57;8.73;;;15.40;77.70;;;;;;802732;175;26470;-78
2024/04/15 11:01:45;;;;;;;30.40;13.33;;;15.40;78.90;;;;;;804358;175;26460;-77
2024/04/15 11:04:12;;;;;;;21.20;11.60;;;14.80;78.50;;;;;;803465;176;26487;-77
2024/04/15 11:06:39;;;;;;;8.90;3.77;;;14.80;81.70;;;;;;800574;176;26438;-77
2024/04/15 11:09:06;;;;;;;23.10;11.20;;;15.10;77.40;;;;;;802337;176;26461;-77
2024/04/15 11:11:33;;;;;;;11.23;4.33;;;15.30;77.00;;;;;;801960;176;26466;-78
2024/04/15 11:13:59;;;;;;;15.37;7.67;;;15.60;80.70;;;;;;805315;174;26468;-75
2024/04/15 11:16:26;;;;;;;21.50;11.37;;;15.50;72.00;;;;;;805895;176;26471;-77
2024/04/15 11:18:53;;;;;;;19.53;8.07;;;15.30;71.00;;;;;;809411;177;26470;-78
2024/04/15 11:21:19;;;;;;;38.53;19.53;;;15.60;75.60;;;;;;806910;175;26474;-79
2024/04/15 11:23:46;;;;;;;11.43;4.90;;;15.70;67.70;;;;;;806537;176;26444;-81
2024/04/15 11:26:12;;;;;;;30.77;14.50;;;15.60;69.70;;;;;;804512;177;27051;-80
2024/04/15 11:28:39;;;;;;;38.67;18.17;;;15.40;70.10;;;;;;808394;177;26460;-80
2024/04/15 11:31:06;;;;;;;11.53;4.73;;;16.00;71.20;;;;;;805233;177;26454;-80
2024/04/15 11:33:32;;;;;;;5.43;2.73;;;15.70;67.10;;;;;;806519;177;26479;-79
2024/04/15 11:35:59;;;;;;;9.23;2.73;;;15.60;68.20;;;;;;806094;177;26591;-80
2024/04/15 11:38:26;;;;;;;25.17;12.50;;;16.30;71.40;;;;;;805739;175;26463;-77
2024/04/15 11:40:53;;;;;;;16.27;7.03;;;16.70;68.30;;;;;;789869;178;26458;-78
2024/04/15 11:43:19;;;;;;;21.30;9.27;;;16.80;61.80;;;;;;801732;175;26468;-78
2024/04/15 11:45:49;;;;;;;12.00;5.47;;;16.70;63.50;;;;;;803026;176;26458;-77
2024/04/15 11:48:16;;;;;;;41.17;16.13;;;16.90;60.70;;;;;;802653;175;26472;-76
2024/04/15 11:50:42;;;;;;;21.30;9.97;;;16.00;61.30;;;;;;802304;175;26462;-77
2024/04/15 11:53:09;;;;;;;39.93;18.80;;;16.20;66.50;;;;;;803350;176;26470;-78
2024/04/15 11:55:36;;;;;;;20.27;9.43;;;16.60;61.70;;;;;;805196;175;26436;-77
2024/04/15 11:58:03;;;;;;;23.20;11.73;;;16.10;61.30;;;;;;804280;176;26486;-77
2024/04/15 12:00:29;;;;;;;15.63;8.00;;;15.90;61.40;;;;;;802223;178;26473;-78
2024/04/15 12:02:56;;;;;;;13.40;6.50;;;15.80;62.50;;;;;;801426;178;26459;-77
2024/04/15 12:05:25;;;;;;;7.87;3.00;;;15.90;58.70;;;;;;804537;177;26467;-76
2024/04/15 12:07:49;;;;;;;14.63;6.63;;;16.20;57.10;;;;;;803359;177;26987;-76
2024/04/15 12:10:16;;;;;;;23.30;9.87;;;16.70;55.90;;;;;;800975;175;26450;-77
2024/04/15 12:12:42;;;;;;;50.47;25.93;;;16.70;54.70;;;;;;803204;178;28093;-77
2024/04/15 12:15:10;;;;;;;42.67;21.23;;;16.20;54.30;;;;;;805488;177;26460;-77
2024/04/15 12:17:36;;;;;;;10.37;5.50;;;15.60;56.00;;;;;;803897;175;26625;-77
2024/04/15 12:20:04;;;;;;;6.00;3.40;;;16.00;55.70;;;;;;804455;178;26469;-76
2024/04/15 12:22:30;;;;;;;25.13;11.80;;;15.90;55.60;;;;;;802940;178;26981;-76
2024/04/15 12:24:56;;;;;;;38.60;17.13;;;15.30;55.00;;;;;;803664;176;26448;-82
2024/04/15 12:27:23;;;;;;;24.33;9.40;;;15.40;56.70;;;;;;806506;178;26464;-83
2024/04/15 12:29:50;;;;;;;6.83;3.60;;;15.50;56.30;;;;;;806025;177;26486;-77
2024/04/15 12:32:16;;;;;;;12.20;3.53;;;15.20;55.50;;;;;;805058;178;26439;-76
2024/04/15 12:34:43;;;;;;;12.23;5.63;;;14.90;55.70;;;;;;803164;177;27020;-77